sensor_id;sensor_type;location;lat;lon;timestamp;pressure;altitude;pressure_sealevel;temperature;humidity
7662;BME280;30314;48.184;11.510;2024-02-15T00:01:51;96430.91;;;8.15;100.00
7662;BME280;30314;48.184;11.510;2024-02-15T00:04:18;96432.22;;;8.12;100.00
7662;BME280;30314;48.184;11.510;2024-02-15T00:06:46;96433.03;;;8.13;100.00
7662;BME280;30314;48.184;11.510;2024-02-15T00:09:14;96441.19;;;8.16;100.00
7662;BME280;30314;48.184;11.510;2024-02-15T00:11:40;96407.94;;;7.95;100.00
7662;BME280;30314;48.184;11.510;2024-02-15T00:14:08;96428.00;;;8.11;100.00
7662;BME280;30314;48.184;11.510;2024-02-15T00:16:34;96415.59;;;8.01;100.00
7662;BME280;30314;48.184;11.510;2024-02-15T00:19:02;96415.59;;;8.01;100.00
7662;BME280;30314;48.184;11.510;2024-02-15T00:21:28;96409.56;;;8.01;100.00
7662;BME280;30314;48.184;11.510;2024-02-15T00:23:55;96375.22;;;7.75;100.00
7662;BME280;30314;48.184;11.510;2024-02-15T00:26:23;96359.34;;;7.59;100.00
7662;BME280;30314;48.184;11.510;2024-02-15T00:28:50;96413.72;;;7.97;100.00
7662;BME280;30314;48.184;11.510;2024-02-15T00:31:16;96356.97;;;7.58;100.00
7662;BME280;30314;48.184;11.510;2024-02-15T00:33:43;96421.88;;;7.95;100.00
7662;BME280;30314;48.184;11.510;2024-02-15T00:36:10;96364.63;;;7.65;100.00
7662;BME280;30314;48.184;11.510;2024-02-15T00:38:37;96398.94;;;7.85;100.00
7662;BME280;30314;48.184;11.510;2024-02-15T00:41:05;96405.81;;;7.92;100.00
7662;BME280;30314;48.184;11.510;2024-02-15T00:43:34;96430.09;;;8.04;100.00
7662;BME280;30314;48.184;11.510;2024-02-15T00:46:02;96417.91;;;7.87;100.00
7662;BME280;30314;48.184;11.510;2024-02-15T00:48:29;96411.00;;;7.76;100.00
7662;BME280;30314;48.184;11.510;2024-02-15T00:50:56;96431.00;;;7.82;100.00
7662;BME280;30314;48.184;11.510;2024-02-15T00:53:24;96340.72;;;7.23;100.00
7662;BME280;30314;48.184;11.510;2024-02-15T00:55:51;96408.78;;;7.63;100.00
7662;BME280;30314;48.184;11.510;2024-02-15T00:58:18;96411.97;;;7.65;100.00
7662;BME280;30314;48.184;11.510;2024-02-15T01:00:45;96409.78;;;7.56;100.00
7662;BME280;30314;48.184;11.510;2024-02-15T01:03:11;96366.47;;;7.21;100.00
7662;BME280;30314;48.184;11.510;2024-02-15T01:05:38;96421.88;;;7.57;100.00
7662;BME280;30314;48.184;11.510;2024-02-15T01:08:05;96356.94;;;7.15;100.00
7662;BME280;30314;48.184;11.510;2024-02-15T01:10:31;96404.44;;;7.46;100.00
7662;BME280;30314;48.184;11.510;2024-02-15T01:13:00;96428.16;;;7.51;100.00
7662;BME280;30314;48.184;11.510;2024-02-15T01:15:26;96406.28;;;7.40;100.00
7662;BME280;30314;48.184;11.510;2024-02-15T01:17:54;96413.88;;;7.42;100.00
7662;BME280;30314;48.184;11.510;2024-02-15T01:20:21;96437.41;;;7.59;100.00
7662;BME280;30314;48.184;11.510;2024-02-15T01:22:48;96359.47;;;7.04;100.00
7662;BME280;30314;48.184;11.510;2024-02-15T01:25:14;96405.91;;;7.31;100.00
7662;BME280;30314;48.184;11.510;2024-02-15T01:27:42;96423.03;;;7.34;100.00
7662;BME280;30314;48.184;11.510;2024-02-15T01:30:09;96405.88;;;7.26;100.00
7662;BME280;30314;48.184;11.510;2024-02-15T01:32:37;96410.84;;;7.23;100.00
7662;BME280;30314;48.184;11.510;2024-02-15T01:35:03;96396.09;;;7.16;100.00
7662;BME280;30314;48.184;11.510;2024-02-15T01:37:30;96395.28;;;7.16;100.00
7662;BME280;30314;48.184;11.510;2024-02-15T01:39:57;96428.50;;;7.27;100.00
7662;BME280;30314;48.184;11.510;2024-02-15T01:42:24;96395.75;;;7.08;100.00
7662;BME280;30314;48.184;11.510;2024-02-15T01:44:50;96409.66;;;7.08;100.00
7662;BME280;30314;48.184;11.510;2024-02-15T01:47:19;96400.19;;;7.02;100.00
7662;BME280;30314;48.184;11.510;2024-02-15T01:49:46;96414.69;;;7.10;100.00
7662;BME280;30314;48.184;11.510;2024-02-15T01:52:16;96408.84;;;7.02;100.00
7662;BME280;30314;48.184;11.510;2024-02-15T01:54:44;96387.88;;;6.80;100.00
7662;BME280;30314;48.184;11.510;2024-02-15T01:57:11;96339.47;;;6.43;100.00
7662;BME280;30314;48.184;11.510;2024-02-15T01:59:38;96389.97;;;6.78;100.00
7662;BME280;30314;48.184;11.510;2024-02-15T02:02:08;96364.03;;;6.59;100.00
7662;BME280;30314;48.184;11.510;2024-02-15T02:04:38;96352.13;;;6.52;100.00
7662;BME280;30314;48.184;11.510;2024-02-15T02:07:04;96406.59;;;6.89;100.00
7662;BME280;30314;48.184;11.510;2024-02-15T02:09:31;96364.63;;;6.67;100.00
7662;BME280;30314;48.184;11.510;2024-02-15T02:11:58;96405.91;;;6.99;100.00
7662;BME280;30314;48.184;11.510;2024-02-15T02:14:25;96389.56;;;6.92;100.00
7662;BME280;30314;48.184;11.510;2024-02-15T02:16:52;96366.59;;;6.76;100.00
7662;BME280;30314;48.184;11.510;2024-02-15T02:19:19;96403.47;;;6.92;100.00
7662;BME280;30314;48.184;11.510;2024-02-15T02:21:46;96393.53;;;6.94;100.00
7662;BME280;30314;48.184;11.510;2024-02-15T02:24:22;96371.31;;;6.80;100.00
7662;BME280;30314;48.184;11.510;2024-02-15T02:26:49;96385.38;;;6.90;100.00
7662;BME280;30314;48.184;11.510;2024-02-15T02:29:16;96377.19;;;6.87;100.00
7662;BME280;30314;48.184;11.510;2024-02-15T02:31:43;96376.69;;;6.90;100.00
7662;BME280;30314;48.184;11.510;2024-02-15T02:34:10;96364.59;;;6.89;100.00
7662;BME280;30314;48.184;11.510;2024-02-15T02:36:37;96374.06;;;6.90;100.00
7662;BME280;30314;48.184;11.510;2024-02-15T02:39:04;96391.94;;;6.93;100.00
7662;BME280;30314;48.184;11.510;2024-02-15T02:41:31;96378.75;;;6.88;100.00
7662;BME280;30314;48.184;11.510;2024-02-15T02:43:57;96363.19;;;6.76;100.00
7662;BME280;30314;48.184;11.510;2024-02-15T02:46:24;96376.69;;;6.90;100.00
7662;BME280;30314;48.184;11.510;2024-02-15T02:48:51;96386.69;;;6.93;100.00
7662;BME280;30314;48.184;11.510;2024-02-15T02:51:18;96383.50;;;6.91;100.00
7662;BME280;30314;48.184;11.510;2024-02-15T02:53:45;96389.88;;;6.95;100.00
7662;BME280;30314;48.184;11.510;2024-02-15T02:56:12;96344.91;;;6.64;100.00
7662;BME280;30314;48.184;11.510;2024-02-15T02:58:39;96364.56;;;6.84;100.00
7662;BME280;30314;48.184;11.510;2024-02-15T03:01:10;96376.19;;;6.93;100.00
7662;BME280;30314;48.184;11.510;2024-02-15T03:03:37;96313.28;;;6.48;100.00
7662;BME280;30314;48.184;11.510;2024-02-15T03:06:04;96405.13;;;6.98;100.00
7662;BME280;30314;48.184;11.510;2024-02-15T03:08:31;96366.59;;;6.76;100.00
7662;BME280;30314;48.184;11.510;2024-02-15T03:10:58;96320.59;;;6.46;100.00
7662;BME280;30314;48.184;11.510;2024-02-15T03:13:25;96315.75;;;6.33;100.00
7662;BME280;30314;48.184;11.510;2024-02-15T03:15:51;96335.84;;;6.49;100.00
7662;BME280;30314;48.184;11.510;2024-02-15T03:18:18;96368.06;;;6.67;100.00
7662;BME280;30314;48.184;11.510;2024-02-15T03:20:44;96335.72;;;6.39;100.00
7662;BME280;30314;48.184;11.510;2024-02-15T03:23:11;96363.47;;;6.57;100.00
7662;BME280;30314;48.184;11.510;2024-02-15T03:25:38;96359.47;;;6.49;100.00
7662;BME280;30314;48.184;11.510;2024-02-15T03:28:05;96378.44;;;6.57;100.00
7662;BME280;30314;48.184;11.510;2024-02-15T03:30:32;96399.06;;;6.70;100.00
7662;BME280;30314;48.184;11.510;2024-02-15T03:33:00;96390.03;;;6.61;100.00
7662;BME280;30314;48.184;11.510;2024-02-15T03:35:29;96384.16;;;6.54;100.00
7662;BME280;30314;48.184;11.510;2024-02-15T03:37:58;96368.25;;;6.38;100.00
7662;BME280;30314;48.184;11.510;2024-02-15T03:40:25;96362.47;;;6.36;100.00
7662;BME280;30314;48.184;11.510;2024-02-15T03:42:57;96363.47;;;6.30;100.00
7662;BME280;30314;48.184;11.510;2024-02-15T03:45:24;96394.19;;;6.57;100.00
7662;BME280;30314;48.184;11.510;2024-02-15T03:47:53;96389.06;;;6.45;100.00
7662;BME280;30314;48.184;11.510;2024-02-15T03:50:20;96349.13;;;6.15;100.00
7662;BME280;30314;48.184;11.510;2024-02-15T03:52:49;96398.81;;;6.49;100.00
7662;BME280;30314;48.184;11.510;2024-02-15T03:55:16;96394.50;;;6.38;100.00
7662;BME280;30314;48.184;11.510;2024-02-15T03:57:43;96374.13;;;6.23;100.00
7662;BME280;30314;48.184;11.510;2024-02-15T04:00:12;96396.03;;;6.34;100.00
7662;BME280;30314;48.184;11.510;2024-02-15T04:02:41;96359.19;;;6.01;100.00
7662;BME280;30314;48.184;11.510;2024-02-15T04:05:09;96400.19;;;6.30;100.00
7662;BME280;30314;48.184;11.510;2024-02-15T04:07:36;96390.53;;;6.13;100.00
7662;BME280;30314;48.184;11.510;2024-02-15T04:10:06;96363.81;;;5.94;100.00
7662;BME280;30314;48.184;11.510;2024-02-15T04:12:35;96346.94;;;5.85;100.00
7662;BME280;30314;48.184;11.510;2024-02-15T04:15:02;96359.06;;;5.91;100.00
7662;BME280;30314;48.184;11.510;2024-02-15T04:17:40;96376.13;;;5.94;100.00
7662;BME280;30314;48.184;11.510;2024-02-15T04:20:09;96403.03;;;6.06;100.00
7662;BME280;30314;48.184;11.510;2024-02-15T04:22:35;96378.63;;;5.83;100.00
7662;BME280;30314;48.184;11.510;2024-02-15T04:25:06;96370.38;;;5.74;100.00
7662;BME280;30314;48.184;11.510;2024-02-15T04:27:33;96375.84;;;5.73;100.00
7662;BME280;30314;48.184;11.510;2024-02-15T04:30:01;96396.47;;;5.86;100.00
7662;BME280;30314;48.184;11.510;2024-02-15T04:32:29;96391.66;;;5.78;100.00
7662;BME280;30314;48.184;11.510;2024-02-15T04:35:00;96408.53;;;5.87;100.00
7662;BME280;30314;48.184;11.510;2024-02-15T04:37:28;96362.53;;;5.57;100.00
7662;BME280;30314;48.184;11.510;2024-02-15T04:39:59;96393.16;;;5.74;100.00
7662;BME280;30314;48.184;11.510;2024-02-15T04:42:33;96405.00;;;5.76;100.00
7662;BME280;30314;48.184;11.510;2024-02-15T04:45:01;96374.59;;;5.58;100.00
7662;BME280;30314;48.184;11.510;2024-02-15T04:47:28;96397.63;;;5.73;100.00
7662;BME280;30314;48.184;11.510;2024-02-15T04:49:56;96374.38;;;5.60;100.00
7662;BME280;30314;48.184;11.510;2024-02-15T04:52:23;96382.00;;;5.61;100.00
7662;BME280;30314;48.184;11.510;2024-02-15T04:54:50;96390.16;;;5.65;100.00
7662;BME280;30314;48.184;11.510;2024-02-15T04:57:17;96386.03;;;5.69;100.00
7662;BME280;30314;48.184;11.510;2024-02-15T04:59:44;96373.50;;;5.71;100.00
7662;BME280;30314;48.184;11.510;2024-02-15T05:02:14;96328.97;;;5.54;100.00
7662;BME280;30314;48.184;11.510;2024-02-15T05:04:40;96407.88;;;6.14;100.00
7662;BME280;30314;48.184;11.510;2024-02-15T05:07:10;96405.84;;;6.22;100.00
7662;BME280;30314;48.184;11.510;2024-02-15T05:09:36;96379.25;;;6.13;100.00
7662;BME280;30314;48.184;11.510;2024-02-15T05:12:03;96376.94;;;6.16;100.00
7662;BME280;30314;48.184;11.510;2024-02-15T05:14:31;96382.56;;;6.25;100.00
7662;BME280;30314;48.184;11.510;2024-02-15T05:16:57;96369.13;;;6.22;100.00
7662;BME280;30314;48.184;11.510;2024-02-15T05:19:25;96371.75;;;6.22;100.00
7662;BME280;30314;48.184;11.510;2024-02-15T05:21:52;96368.78;;;6.13;100.00
7662;BME280;30314;48.184;11.510;2024-02-15T05:24:19;96356.88;;;6.05;100.00
7662;BME280;30314;48.184;11.510;2024-02-15T05:26:46;96373.22;;;6.12;100.00
7662;BME280;30314;48.184;11.510;2024-02-15T05:29:17;96374.06;;;5.96;100.00
7662;BME280;30314;48.184;11.510;2024-02-15T05:31:43;96317.22;;;5.57;100.00
7662;BME280;30314;48.184;11.510;2024-02-15T05:34:10;96382.28;;;5.82;100.00
7662;BME280;30314;48.184;11.510;2024-02-15T05:36:40;96368.28;;;5.54;100.00
7662;BME280;30314;48.184;11.510;2024-02-15T05:39:07;96371.94;;;5.53;100.00
7662;BME280;30314;48.184;11.510;2024-02-15T05:41:34;96368.75;;;5.34;100.00
7662;BME280;30314;48.184;11.510;2024-02-15T05:44:01;96381.16;;;5.39;100.00
7662;BME280;30314;48.184;11.510;2024-02-15T05:46:28;96383.38;;;5.30;100.00
7662;BME280;30314;48.184;11.510;2024-02-15T05:48:54;96394.94;;;5.34;100.00
7662;BME280;30314;48.184;11.510;2024-02-15T05:51:22;96358.03;;;5.01;100.00
7662;BME280;30314;48.184;11.510;2024-02-15T05:53:49;96399.94;;;5.18;100.00
7662;BME280;30314;48.184;11.510;2024-02-15T05:56:16;96367.31;;;4.92;100.00
7662;BME280;30314;48.184;11.510;2024-02-15T05:58:43;96367.22;;;4.87;100.00
7662;BME280;30314;48.184;11.510;2024-02-15T06:01:10;96328.25;;;4.56;100.00
7662;BME280;30314;48.184;11.510;2024-02-15T06:03:39;96370.06;;;4.85;100.00
7662;BME280;30314;48.184;11.510;2024-02-15T06:06:07;96353.88;;;4.71;100.00
7662;BME280;30314;48.184;11.510;2024-02-15T06:08:35;96386.47;;;4.81;100.00
7662;BME280;30314;48.184;11.510;2024-02-15T06:11:03;96335.59;;;4.42;100.00
7662;BME280;30314;48.184;11.510;2024-02-15T06:13:31;96387.78;;;4.66;100.00
7662;BME280;30314;48.184;11.510;2024-02-15T06:15:58;96349.31;;;4.49;100.00
7662;BME280;30314;48.184;11.510;2024-02-15T06:18:26;96392.81;;;4.68;100.00
7662;BME280;30314;48.184;11.510;2024-02-15T06:20:55;96372.22;;;4.42;100.00
7662;BME280;30314;48.184;11.510;2024-02-15T06:23:28;96392.75;;;4.50;100.00
7662;BME280;30314;48.184;11.510;2024-02-15T06:25:56;96373.69;;;4.38;100.00
7662;BME280;30314;48.184;11.510;2024-02-15T06:28:24;96395.38;;;4.50;100.00
7662;BME280;30314;48.184;11.510;2024-02-15T06:31:11;96404.94;;;4.74;100.00
7662;BME280;30314;48.184;11.510;2024-02-15T06:33:57;96409.75;;;4.94;100.00
7662;BME280;30314;48.184;11.510;2024-02-15T06:36:47;96402.31;;;5.20;100.00
7662;BME280;30314;48.184;11.510;2024-02-15T06:39:33;96393.19;;;5.05;100.00
7662;BME280;30314;48.184;11.510;2024-02-15T06:42:14;96385.25;;;5.00;100.00
7662;BME280;30314;48.184;11.510;2024-02-15T06:44:43;96407.63;;;5.08;100.00
7662;BME280;30314;48.184;11.510;2024-02-15T06:47:11;96400.66;;;5.14;100.00
7662;BME280;30314;48.184;11.510;2024-02-15T06:49:40;96390.56;;;5.05;100.00
7662;BME280;30314;48.184;11.510;2024-02-15T06:52:07;96381.78;;;5.12;100.00
7662;BME280;30314;48.184;11.510;2024-02-15T06:54:35;96413.06;;;5.35;100.00
7662;BME280;30314;48.184;11.510;2024-02-15T06:57:02;96398.28;;;5.29;100.00
7662;BME280;30314;48.184;11.510;2024-02-15T06:59:31;96410.75;;;5.39;100.00
7662;BME280;30314;48.184;11.510;2024-02-15T07:01:58;96395.81;;;5.40;100.00
7662;BME280;30314;48.184;11.510;2024-02-15T07:04:25;96386.88;;;5.35;100.00
7662;BME280;30314;48.184;11.510;2024-02-15T07:06:52;96398.78;;;5.43;100.00
7662;BME280;30314;48.184;11.510;2024-02-15T07:09:21;96410.25;;;5.59;100.00
7662;BME280;30314;48.184;11.510;2024-02-15T07:11:51;96417.00;;;5.72;100.00
7662;BME280;30314;48.184;11.510;2024-02-15T07:14:18;96397.78;;;5.67;100.00
7662;BME280;30314;48.184;11.510;2024-02-15T07:16:46;96402.06;;;5.73;100.00
7662;BME280;30314;48.184;11.510;2024-02-15T07:19:13;96389.81;;;5.78;100.00
7662;BME280;30314;48.184;11.510;2024-02-15T07:21:41;96408.09;;;5.90;100.00
7662;BME280;30314;48.184;11.510;2024-02-15T07:24:08;96385.09;;;5.98;100.00
7662;BME280;30314;48.184;11.510;2024-02-15T07:26:34;96390.41;;;6.03;100.00
7662;BME280;30314;48.184;11.510;2024-02-15T07:29:03;96416.53;;;6.15;100.00
7662;BME280;30314;48.184;11.510;2024-02-15T07:31:32;96387.78;;;6.03;100.00
7662;BME280;30314;48.184;11.510;2024-02-15T07:34:00;96416.69;;;6.30;100.00
7662;BME280;30314;48.184;11.510;2024-02-15T07:36:27;96387.53;;;6.27;100.00
7662;BME280;30314;48.184;11.510;2024-02-15T07:38:54;96417.50;;;6.53;100.00
7662;BME280;30314;48.184;11.510;2024-02-15T07:41:24;96394.06;;;6.46;100.00
7662;BME280;30314;48.184;11.510;2024-02-15T07:43:51;96398.91;;;6.55;100.00
7662;BME280;30314;48.184;11.510;2024-02-15T07:46:22;96387.13;;;6.35;100.00
7662;BME280;30314;48.184;11.510;2024-02-15T07:48:48;96390.44;;;6.53;100.00
7662;BME280;30314;48.184;11.510;2024-02-15T07:51:17;96381.63;;;6.59;100.00
7662;BME280;30314;48.184;11.510;2024-02-15T07:53:48;96384.34;;;6.69;100.00
7662;BME280;30314;48.184;11.510;2024-02-15T07:56:16;96392.34;;;6.80;100.00
7662;BME280;30314;48.184;11.510;2024-02-15T07:58:44;96390.28;;;6.82;100.00
7662;BME280;30314;48.184;11.510;2024-02-15T08:01:19;96393.69;;;6.82;100.00
7662;BME280;30314;48.184;11.510;2024-02-15T08:03:51;96379.72;;;6.76;100.00
7662;BME280;30314;48.184;11.510;2024-02-15T08:06:20;96332.19;;;6.51;100.00
7662;BME280;30314;48.184;11.510;2024-02-15T08:08:47;96376.09;;;6.83;100.00
7662;BME280;30314;48.184;11.510;2024-02-15T08:11:14;96374.88;;;6.90;100.00
7662;BME280;30314;48.184;11.510;2024-02-15T08:13:49;96390.50;;;7.08;100.00
7662;BME280;30314;48.184;11.510;2024-02-15T08:16:19;96365.69;;;6.93;100.00
7662;BME280;30314;48.184;11.510;2024-02-15T08:18:49;96385.50;;;7.06;100.00
7662;BME280;30314;48.184;11.510;2024-02-15T08:21:25;96371.53;;;7.00;100.00
7662;BME280;30314;48.184;11.510;2024-02-15T08:23:51;96374.25;;;7.11;100.00
7662;BME280;30314;48.184;11.510;2024-02-15T08:26:19;96372.69;;;7.15;100.00
7662;BME280;30314;48.184;11.510;2024-02-15T08:28:46;96362.19;;;7.15;100.00
7662;BME280;30314;48.184;11.510;2024-02-15T08:31:12;96359.88;;;7.24;100.00
7662;BME280;30314;48.184;11.510;2024-02-15T08:33:41;96374.97;;;7.33;100.00
7662;BME280;30314;48.184;11.510;2024-02-15T08:36:10;96361.75;;;7.28;100.00
7662;BME280;30314;48.184;11.510;2024-02-15T08:38:37;96364.22;;;7.40;100.00
7662;BME280;30314;48.184;11.510;2024-02-15T08:41:03;96338.94;;;7.29;100.00
7662;BME280;30314;48.184;11.510;2024-02-15T08:43:34;96368.84;;;7.66;100.00
7662;BME280;30314;48.184;11.510;2024-02-15T08:46:01;96353.31;;;7.64;100.00
7662;BME280;30314;48.184;11.510;2024-02-15T08:48:27;96326.53;;;7.67;100.00
7662;BME280;30314;48.184;11.510;2024-02-15T08:50:54;96327.34;;;7.73;100.00
7662;BME280;30314;48.184;11.510;2024-02-15T08:53:21;96349.06;;;8.01;100.00
7662;BME280;30314;48.184;11.510;2024-02-15T08:55:48;96339.34;;;8.07;100.00
7662;BME280;30314;48.184;11.510;2024-02-15T08:58:15;96354.44;;;8.37;100.00
7662;BME280;30314;48.184;11.510;2024-02-15T09:00:41;96327.06;;;8.33;100.00
7662;BME280;30314;48.184;11.510;2024-02-15T09:03:11;96356.06;;;8.64;100.00
7662;BME280;30314;48.184;11.510;2024-02-15T09:05:40;96361.66;;;8.94;100.00
7662;BME280;30314;48.184;11.510;2024-02-15T09:08:10;96359.81;;;9.15;100.00
7662;BME280;30314;48.184;11.510;2024-02-15T09:10:36;96345.34;;;9.18;100.00
7662;BME280;30314;48.184;11.510;2024-02-15T09:13:05;96335.09;;;9.21;100.00
7662;BME280;30314;48.184;11.510;2024-02-15T09:15:33;96349.31;;;9.41;100.00
7662;BME280;30314;48.184;11.510;2024-02-15T09:17:59;96344.25;;;9.65;100.00
7662;BME280;30314;48.184;11.510;2024-02-15T09:20:26;96280.25;;;9.28;100.00
7662;BME280;30314;48.184;11.510;2024-02-15T09:22:55;96281.31;;;9.38;100.00
7662;BME280;30314;48.184;11.510;2024-02-15T09:25:23;96331.25;;;9.95;100.00
7662;BME280;30314;48.184;11.510;2024-02-15T09:27:50;96291.94;;;9.93;100.00
7662;BME280;30314;48.184;11.510;2024-02-15T09:30:17;96325.84;;;10.26;100.00
7662;BME280;30314;48.184;11.510;2024-02-15T09:32:45;96342.53;;;10.61;100.00
7662;BME280;30314;48.184;11.510;2024-02-15T09:35:12;96320.75;;;10.40;100.00
7662;BME280;30314;48.184;11.510;2024-02-15T09:37:46;96341.38;;;10.78;100.00
7662;BME280;30314;48.184;11.510;2024-02-15T09:40:17;96299.06;;;10.48;100.00
7662;BME280;30314;48.184;11.510;2024-02-15T09:42:46;96338.53;;;10.69;100.00
7662;BME280;30314;48.184;11.510;2024-02-15T09:45:14;96291.84;;;10.59;100.00
7662;BME280;30314;48.184;11.510;2024-02-15T09:47:42;96310.03;;;11.06;100.00
7662;BME280;30314;48.184;11.510;2024-02-15T09:50:14;96312.44;;;11.61;100.00
7662;BME280;30314;48.184;11.510;2024-02-15T09:52:51;96315.78;;;11.72;100.00
7662;BME280;30314;48.184;11.510;2024-02-15T09:55:20;96295.66;;;11.47;100.00
7662;BME280;30314;48.184;11.510;2024-02-15T09:57:50;96239.94;;;11.38;99.17
7662;BME280;30314;48.184;11.510;2024-02-15T10:00:17;96298.34;;;11.90;99.75
7662;BME280;30314;48.184;11.510;2024-02-15T10:02:47;96288.13;;;12.03;100.00
7662;BME280;30314;48.184;11.510;2024-02-15T10:05:14;96290.16;;;12.11;100.00
7662;BME280;30314;48.184;11.510;2024-02-15T10:07:42;96273.84;;;12.23;96.83
7662;BME280;30314;48.184;11.510;2024-02-15T10:10:20;96310.31;;;12.50;98.62
7662;BME280;30314;48.184;11.510;2024-02-15T10:12:48;96241.44;;;12.12;96.27
7662;BME280;30314;48.184;11.510;2024-02-15T10:20:30;96262.97;;;12.82;84.65
7662;BME280;30314;48.184;11.510;2024-02-15T10:25:29;96281.53;;;13.29;85.77
7662;BME280;30314;48.184;11.510;2024-02-15T10:28:05;96266.53;;;13.52;83.13
7662;BME280;30314;48.184;11.510;2024-02-15T10:30:35;96291.22;;;13.67;81.47
7662;BME280;30314;48.184;11.510;2024-02-15T10:33:02;96268.41;;;13.66;81.54
7662;BME280;30314;48.184;11.510;2024-02-15T10:35:29;96254.75;;;13.59;80.04
7662;BME280;30314;48.184;11.510;2024-02-15T10:38:09;96264.56;;;13.86;79.73
7662;BME280;30314;48.184;11.510;2024-02-15T10:40:37;96238.00;;;13.86;79.27
7662;BME280;30314;48.184;11.510;2024-02-15T10:43:04;96253.72;;;14.11;76.99
7662;BME280;30314;48.184;11.510;2024-02-15T10:45:34;96239.16;;;14.22;75.72
7662;BME280;30314;48.184;11.510;2024-02-15T10:48:01;96244.50;;;14.45;75.13
7662;BME280;30314;48.184;11.510;2024-02-15T10:50:27;96237.56;;;14.58;72.90
7662;BME280;30314;48.184;11.510;2024-02-15T10:52:55;96228.56;;;14.68;68.98
7662;BME280;30314;48.184;11.510;2024-02-15T10:59:31;96220.69;;;14.85;70.68
7662;BME280;30314;48.184;11.510;2024-02-15T11:01:34;96237.09;;;15.10;69.86
7662;BME280;30314;48.184;11.510;2024-02-15T11:04:08;96219.16;;;15.25;66.38
7662;BME280;30314;48.184;11.510;2024-02-15T11:06:38;96220.31;;;15.01;63.84
7662;BME280;30314;48.184;11.510;2024-02-15T11:09:12;96206.69;;;14.71;66.14
7662;BME280;30314;48.184;11.510;2024-02-15T11:11:41;96201.03;;;14.95;68.93
7662;BME280;30314;48.184;11.510;2024-02-15T11:14:32;96210.72;;;15.22;67.14
7662;BME280;30314;48.184;11.510;2024-02-15T11:17:02;96191.34;;;15.31;65.96
7662;BME280;30314;48.184;11.510;2024-02-15T11:22:08;96212.63;;;15.31;64.78
7662;BME280;30314;48.184;11.510;2024-02-15T11:24:37;96211.91;;;15.48;65.23
7662;BME280;30314;48.184;11.510;2024-02-15T11:27:11;96182.59;;;15.39;61.26
7662;BME280;30314;48.184;11.510;2024-02-15T11:29:53;96195.91;;;15.39;61.79
7662;BME280;30314;48.184;11.510;2024-02-15T11:32:48;96201.59;;;15.15;60.65
7662;BME280;30314;48.184;11.510;2024-02-15T11:35:24;96180.94;;;15.12;62.24
7662;BME280;30314;48.184;11.510;2024-02-15T11:37:53;96161.72;;;14.83;61.09
7662;BME280;30314;48.184;11.510;2024-02-15T11:40:27;96181.94;;;14.93;62.62
7662;BME280;30314;48.184;11.510;2024-02-15T11:42:59;96181.09;;;15.15;62.17
7662;BME280;30314;48.184;11.510;2024-02-15T11:45:27;96169.91;;;14.96;63.54
7662;BME280;30314;48.184;11.510;2024-02-15T11:48:09;96174.38;;;15.18;63.88
7662;BME280;30314;48.184;11.510;2024-02-15T11:50:40;96097.31;;;14.55;63.73
7662;BME280;30314;48.184;11.510;2024-02-15T11:53:08;96141.41;;;14.87;64.96
7662;BME280;30314;48.184;11.510;2024-02-15T11:55:39;96094.09;;;14.67;67.07
7662;BME280;30314;48.184;11.510;2024-02-15T11:58:08;96129.56;;;14.93;65.20
7662;BME280;30314;48.184;11.510;2024-02-15T12:00:36;96158.41;;;15.09;65.66
7662;BME280;30314;48.184;11.510;2024-02-15T12:03:22;96155.22;;;14.98;64.85
7662;BME280;30314;48.184;11.510;2024-02-15T12:06:27;96143.94;;;14.92;66.14
7662;BME280;30314;48.184;11.510;2024-02-15T12:09:17;96108.00;;;14.63;64.74
7662;BME280;30314;48.184;11.510;2024-02-15T12:12:03;96138.44;;;14.57;66.25
7662;BME280;30314;48.184;11.510;2024-02-15T12:14:49;96125.78;;;14.54;67.21
7662;BME280;30314;48.184;11.510;2024-02-15T12:17:34;96123.53;;;14.47;69.87
7662;BME280;30314;48.184;11.510;2024-02-15T12:20:20;96114.44;;;14.40;67.67
7662;BME280;30314;48.184;11.510;2024-02-15T12:22:52;96112.97;;;14.33;68.63
7662;BME280;30314;48.184;11.510;2024-02-15T12:25:19;96100.69;;;14.15;68.18
7662;BME280;30314;48.184;11.510;2024-02-15T12:27:54;96098.22;;;14.04;68.69
7662;BME280;30314;48.184;11.510;2024-02-15T12:30:22;96103.19;;;13.97;70.09
7662;BME280;30314;48.184;11.510;2024-02-15T12:32:50;96106.25;;;14.13;75.63
7662;BME280;30314;48.184;11.510;2024-02-15T12:35:19;96083.69;;;14.02;70.58
7662;BME280;30314;48.184;11.510;2024-02-15T12:37:47;96080.50;;;13.91;71.04
7662;BME280;30314;48.184;11.510;2024-02-15T12:40:17;96102.84;;;14.13;67.16
7662;BME280;30314;48.184;11.510;2024-02-15T12:42:45;96108.66;;;14.37;65.85
7662;BME280;30314;48.184;11.510;2024-02-15T12:45:20;96112.97;;;14.33;67.74
7662;BME280;30314;48.184;11.510;2024-02-15T12:47:51;96078.44;;;14.11;69.87
7662;BME280;30314;48.184;11.510;2024-02-15T12:50:20;96080.56;;;14.22;69.30
7662;BME280;30314;48.184;11.510;2024-02-15T12:52:49;96077.72;;;14.19;68.84
7662;BME280;30314;48.184;11.510;2024-02-15T12:55:18;96095.47;;;14.32;68.01
7662;BME280;30314;48.184;11.510;2024-02-15T12:57:50;96097.78;;;14.25;68.46
7662;BME280;30314;48.184;11.510;2024-02-15T13:00:21;96092.91;;;14.04;67.66
7662;BME280;30314;48.184;11.510;2024-02-15T13:02:50;96066.41;;;13.90;68.26
7662;BME280;30314;48.184;11.510;2024-02-15T13:05:17;96051.53;;;13.80;67.88
7662;BME280;30314;48.184;11.510;2024-02-15T13:07:51;96080.25;;;14.01;68.10
7662;BME280;30314;48.184;11.510;2024-02-15T13:10:18;96013.28;;;13.59;70.26
7662;BME280;30314;48.184;11.510;2024-02-15T13:12:45;96059.66;;;13.84;68.11
7662;BME280;30314;48.184;11.510;2024-02-15T13:15:14;96051.53;;;13.80;68.35
7662;BME280;30314;48.184;11.510;2024-02-15T13:17:44;96059.38;;;13.86;67.46
7662;BME280;30314;48.184;11.510;2024-02-15T13:20:15;96033.69;;;13.72;68.58
7662;BME280;30314;48.184;11.510;2024-02-15T13:22:42;96074.31;;;14.18;62.33
7662;BME280;30314;48.184;11.510;2024-02-15T13:25:14;96024.91;;;13.94;63.23